Main page
METAR-TAF:

METAR-TAF

Airports :

Gastonia Municipal Airport

Gastonia, North Carolina, United States

latitude: 35-11-48N, longitude: 081-09-21W, elevation: 797 ft

Current weather observation

The report was made 26 minutes ago, at 11:54 UTC
Wind 5 mph from the South/Southwest
Temperature 75°F
Humidity 89%
Pressure 30.00 in. Hg
Visibility: 10 miles
Clear sky

METAR: KAKH 231154Z AUTO 20004KT 10SM CLR 24/22 A3000 RMK AO2 SLP149 T02390222 10244 20217 58000

Time: 08:20 (12:20 UTC)


TAF: missing

Weather observations and forecasts of more than 4000 airports (METAR and TAF reports).

The available stations are represented by yellow and red dots on the map.

Hover mouse over dot to see the name of the station.

Then click to see weather observations and forecasts.

To change the map : click on the green buttons with a black cross to zoom in, on the green button with a dash to zoom out, or on the green arrows for adjacent maps.


METAR-TAF: